Time;durP1;ratioP1;P1;durP2;ratioP2;P2;SDS_P1;SDS_P2;PMS_P1;PMS_P2;Temp;Humidity;BMP_temperature;BMP_pressure;BME280_temperature;BME280_humidity;BME280_pressure;Samples;Min_cycle;Max_cycle;Signal;HPM_P1;HPM_P2
2022/07/04 00:00:37;;;;;;;0.30;0.30;;;17.60;99.90;;;;;;5052081;28;20543;-70
2022/07/04 00:03:03;;;;;;;0.30;0.30;;;17.60;99.90;;;;;;5053345;28;20175;-70
2022/07/04 00:05:28;;;;;;;0.40;0.40;;;17.60;99.90;;;;;;5053410;28;20684;-70
2022/07/04 00:07:54;;;;;;;0.30;0.30;;;17.60;99.90;;;;;;5051992;28;20174;-70
2022/07/04 00:10:23;;;;;;;1.37;1.37;;;17.60;99.90;;;;;;5053246;28;20192;-70
2022/07/04 00:12:50;;;;;;;0.93;0.80;;;17.70;99.90;;;;;;5053380;28;20638;-70
2022/07/04 00:15:16;;;;;;;0.50;0.50;;;17.70;99.90;;;;;;5053150;28;20439;-70
2022/07/04 00:17:42;;;;;;;0.60;0.60;;;17.70;99.90;;;;;;5053350;28;20538;-70
2022/07/04 00:20:09;;;;;;;0.30;0.30;;;17.70;99.90;;;;;;5053069;28;20766;-70
2022/07/04 00:22:35;;;;;;;0.40;0.40;;;17.60;99.90;;;;;;5052988;28;20972;-70
2022/07/04 00:25:01;;;;;;;0.30;0.30;;;17.60;99.90;;;;;;5053187;28;20439;-70
2022/07/04 00:27:27;;;;;;;0.37;0.37;;;17.70;99.90;;;;;;5052994;28;20452;-70
2022/07/04 00:29:53;;;;;;;0.30;0.30;;;17.70;99.90;;;;;;5052944;28;20817;-70
2022/07/04 00:32:19;;;;;;;0.37;0.37;;;17.70;99.90;;;;;;5056866;28;20518;-71
2022/07/04 00:34:45;;;;;;;0.40;0.40;;;17.70;99.90;;;;;;5057068;28;20420;-71
2022/07/04 00:40:33;;;;;;;0.30;0.30;;;17.80;99.90;;;;;;5057014;28;20535;-70
2022/07/04 00:43:03;;;;;;;0.30;0.30;;;17.80;99.90;;;;;;5056848;28;20404;-70
2022/07/04 00:45:29;;;;;;;0.30;0.30;;;17.70;99.90;;;;;;5056850;28;20190;-70
2022/07/04 00:47:55;;;;;;;0.30;0.30;;;17.70;99.90;;;;;;5056655;28;20411;-70
2022/07/04 00:50:21;;;;;;;0.50;0.50;;;17.80;99.90;;;;;;5056595;28;20206;-71
2022/07/04 00:52:47;;;;;;;0.30;0.30;;;17.80;99.90;;;;;;5056664;28;20174;-70
2022/07/04 00:55:14;;;;;;;0.60;0.60;;;17.70;99.90;;;;;;5056501;28;20920;-69
2022/07/04 00:57:40;;;;;;;0.50;0.50;;;17.60;99.90;;;;;;5056644;28;20602;-69
2022/07/04 01:00:06;;;;;;;0.30;0.30;;;17.60;99.90;;;;;;5056505;28;20480;-70
2022/07/04 01:02:32;;;;;;;0.47;0.47;;;17.70;99.90;;;;;;5056620;28;20549;-70
2022/07/04 01:04:58;;;;;;;0.30;0.30;;;17.70;99.90;;;;;;5056277;28;20458;-70
2022/07/04 01:07:24;;;;;;;0.30;0.30;;;17.70;99.90;;;;;;5056301;28;20220;-70
2022/07/04 01:09:50;;;;;;;0.30;0.30;;;17.60;99.90;;;;;;5056199;28;20166;-70
2022/07/04 01:12:28;;;;;;;0.30;0.30;;;17.70;99.90;;;;;;5056477;28;20404;-70
2022/07/04 01:14:54;;;;;;;0.30;0.30;;;17.70;99.90;;;;;;5056310;28;20397;-70
2022/07/04 01:17:20;;;;;;;0.30;0.30;;;17.70;99.90;;;;;;5056096;28;20423;-70
2022/07/04 01:19:46;;;;;;;0.30;0.30;;;17.70;99.90;;;;;;5056003;28;20421;-71
2022/07/04 01:22:13;;;;;;;0.30;0.30;;;17.70;99.90;;;;;;5056143;28;20438;-69
2022/07/04 01:24:38;;;;;;;0.30;0.30;;;17.70;99.90;;;;;;5056155;28;20534;-70
2022/07/04 01:27:04;;;;;;;0.70;0.70;;;17.70;99.90;;;;;;5055860;28;20459;-70
2022/07/04 01:29:32;;;;;;;0.30;0.30;;;17.70;99.90;;;;;;5055891;28;20167;-70
2022/07/04 01:32:05;;;;;;;0.30;0.30;;;17.70;99.90;;;;;;5056012;28;20419;-70
2022/07/04 01:34:30;;;;;;;0.53;0.53;;;17.70;99.90;;;;;;5056299;28;20401;-70
2022/07/04 01:36:58;;;;;;;0.30;0.30;;;17.80;99.90;;;;;;5055703;28;20421;-70
2022/07/04 01:39:23;;;;;;;0.60;0.60;;;17.80;99.90;;;;;;5055706;28;20180;-70
2022/07/04 01:41:49;;;;;;;0.40;0.40;;;17.80;99.90;;;;;;5055045;28;20836;-71
2022/07/04 01:44:14;;;;;;;0.30;0.30;;;17.80;99.90;;;;;;5055567;28;20166;-70
2022/07/04 01:46:40;;;;;;;0.30;0.30;;;17.90;99.90;;;;;;5055502;28;20271;-70
2022/07/04 01:49:06;;;;;;;0.30;0.30;;;17.80;99.90;;;;;;5055596;28;20230;-70
2022/07/04 01:51:31;;;;;;;0.30;0.30;;;17.80;99.90;;;;;;5055599;28;20170;-70
2022/07/04 01:53:57;;;;;;;0.30;0.30;;;17.80;99.90;;;;;;5055826;28;20541;-69
2022/07/04 01:56:22;;;;;;;0.40;0.40;;;17.80;99.90;;;;;;5055634;28;20193;-70
2022/07/04 01:58:48;;;;;;;1.37;0.80;;;17.80;99.90;;;;;;5053944;28;20175;-70
2022/07/04 02:01:32;;;;;;;0.40;0.40;;;17.70;99.90;;;;;;5055339;28;20228;-70
2022/07/04 02:03:59;;;;;;;0.30;0.30;;;17.60;99.90;;;;;;5055539;28;20185;-70
2022/07/04 02:06:25;;;;;;;0.67;0.67;;;17.60;99.90;;;;;;5055119;28;20525;-70
2022/07/04 02:14:19;;;;;;;0.30;0.30;;;17.80;99.90;;;;;;5055358;28;20927;-69
2022/07/04 02:16:45;;;;;;;0.30;0.30;;;17.70;99.90;;;;;;5055075;28;20426;-70
2022/07/04 02:19:11;;;;;;;0.30;0.30;;;17.80;99.90;;;;;;5054915;28;20851;-70
2022/07/04 02:21:36;;;;;;;0.40;0.40;;;17.80;99.90;;;;;;5055107;28;20174;-70
2022/07/04 02:24:02;;;;;;;0.30;0.30;;;17.70;99.90;;;;;;5054782;28;20217;-70
2022/07/04 02:26:28;;;;;;;0.30;0.30;;;17.70;99.90;;;;;;5054699;28;20252;-70
2022/07/04 02:28:53;;;;;;;0.40;0.40;;;17.70;99.90;;;;;;5054686;28;20455;-70
2022/07/04 02:31:19;;;;;;;0.30;0.30;;;17.70;99.90;;;;;;5054853;28;20236;-70
2022/07/04 02:33:45;;;;;;;0.30;0.30;;;17.70;99.90;;;;;;5054919;28;20249;-70
2022/07/04 02:36:10;;;;;;;0.30;0.30;;;17.60;99.90;;;;;;5054736;28;20277;-69
2022/07/04 02:38:36;;;;;;;0.30;0.30;;;17.70;99.90;;;;;;5054632;28;20643;-71
2022/07/04 02:41:01;;;;;;;1.53;0.63;;;17.70;99.90;;;;;;5054581;28;20181;-70
2022/07/04 02:43:27;;;;;;;0.30;0.30;;;17.70;99.90;;;;;;5054554;28;20170;-70
2022/07/04 02:45:53;;;;;;;0.30;0.30;;;17.80;99.90;;;;;;5054316;28;20194;-69
2022/07/04 02:48:18;;;;;;;0.40;0.40;;;17.70;99.90;;;;;;5054433;28;20643;-70
2022/07/04 02:50:44;;;;;;;2.30;2.20;;;17.70;99.90;;;;;;5054666;28;20246;-70
2022/07/04 02:53:10;;;;;;;0.30;0.30;;;17.70;99.90;;;;;;5054302;28;20163;-70
2022/07/04 02:55:35;;;;;;;0.30;0.30;;;17.80;99.90;;;;;;5054254;28;20197;-70
2022/07/04 02:58:01;;;;;;;0.30;0.30;;;17.70;99.90;;;;;;5054147;28;20166;-70
2022/07/04 03:00:27;;;;;;;0.30;0.30;;;17.80;99.90;;;;;;5054451;28;20163;-71
2022/07/04 03:02:54;;;;;;;0.30;0.30;;;17.70;99.90;;;;;;5054326;28;20200;-70
2022/07/04 03:05:20;;;;;;;0.30;0.30;;;17.70;99.90;;;;;;5052917;28;20273;-70
2022/07/04 03:07:45;;;;;;;1.13;1.03;;;17.60;99.90;;;;;;5054027;28;20422;-71
2022/07/04 03:10:11;;;;;;;0.50;0.50;;;17.60;99.90;;;;;;5053852;28;20245;-70
2022/07/04 03:12:37;;;;;;;0.60;0.60;;;17.70;99.90;;;;;;5054093;28;20912;-71
2022/07/04 03:15:03;;;;;;;0.40;0.40;;;17.80;99.90;;;;;;5053977;28;20170;-71
2022/07/04 03:17:31;;;;;;;0.50;0.50;;;17.90;99.90;;;;;;5053989;28;20169;-70
2022/07/04 03:19:57;;;;;;;0.50;0.50;;;17.90;99.90;;;;;;5052388;28;20800;-70
2022/07/04 03:22:23;;;;;;;0.30;0.30;;;17.90;99.90;;;;;;5053878;28;20446;-70
2022/07/04 03:24:48;;;;;;;0.40;0.40;;;17.90;99.90;;;;;;5054207;28;20397;-70
2022/07/04 03:27:14;;;;;;;0.30;0.30;;;17.90;99.90;;;;;;5053679;28;20240;-70
2022/07/04 03:29:41;;;;;;;0.30;0.30;;;18.00;99.90;;;;;;5053718;28;20202;-71
2022/07/04 03:32:07;;;;;;;0.30;0.30;;;18.00;99.90;;;;;;5053908;28;20225;-70
2022/07/04 03:34:32;;;;;;;0.30;0.30;;;18.00;99.90;;;;;;5053867;28;20417;-71
2022/07/04 03:36:58;;;;;;;0.40;0.40;;;18.00;99.90;;;;;;5053730;28;20514;-71
2022/07/04 03:39:23;;;;;;;0.47;0.47;;;18.00;99.90;;;;;;5053552;28;20178;-70
2022/07/04 03:41:49;;;;;;;0.40;0.40;;;18.00;99.90;;;;;;5053620;28;20174;-70
2022/07/04 03:44:15;;;;;;;0.60;0.60;;;18.00;99.90;;;;;;5053739;28;20184;-71
2022/07/04 03:46:41;;;;;;;0.30;0.30;;;18.00;99.90;;;;;;5053430;28;20209;-71
2022/07/04 03:49:06;;;;;;;0.40;0.40;;;18.00;99.90;;;;;;5053342;28;20182;-70
2022/07/04 03:51:32;;;;;;;0.30;0.30;;;17.90;99.90;;;;;;5053575;28;20167;-69
2022/07/04 03:53:58;;;;;;;0.50;0.50;;;17.90;99.90;;;;;;5053423;28;20204;-69
2022/07/04 03:56:23;;;;;;;0.30;0.30;;;17.90;99.90;;;;;;5053351;28;20195;-71
2022/07/04 03:58:49;;;;;;;0.30;0.30;;;18.00;99.90;;;;;;5053215;28;20174;-70
2022/07/04 04:01:18;;;;;;;0.50;0.50;;;17.90;99.90;;;;;;5053566;28;20166;-70
2022/07/04 04:06:30;;;;;;;0.60;0.60;;;17.90;99.90;;;;;;5055454;28;20509;-71
2022/07/04 04:08:56;;;;;;;0.93;0.93;;;17.80;99.90;;;;;;5057324;28;20415;-70
2022/07/04 04:11:22;;;;;;;0.50;0.50;;;17.90;99.90;;;;;;5057470;28;20503;-70
2022/07/04 04:13:48;;;;;;;0.30;0.30;;;17.90;99.90;;;;;;5057468;28;20920;-70
2022/07/04 04:16:13;;;;;;;0.77;0.77;;;17.90;99.90;;;;;;5057356;28;20468;-70
2022/07/04 04:18:39;;;;;;;0.43;0.43;;;18.00;99.90;;;;;;5057057;28;20178;-70
2022/07/04 04:21:05;;;;;;;0.40;0.40;;;18.00;99.90;;;;;;5057230;28;20648;-71
2022/07/04 04:23:31;;;;;;;0.30;0.30;;;18.00;99.90;;;;;;5057149;28;20190;-70
2022/07/04 04:25:56;;;;;;;0.30;0.30;;;18.00;99.90;;;;;;5057024;28;20463;-70
2022/07/04 04:28:22;;;;;;;0.30;0.30;;;18.00;99.90;;;;;;5055589;28;20643;-71
2022/07/04 04:30:48;;;;;;;0.87;0.87;;;18.00;99.90;;;;;;5057247;28;20178;-70
2022/07/04 04:33:13;;;;;;;1.00;1.00;;;18.00;99.90;;;;;;5055867;28;20181;-70
2022/07/04 04:35:39;;;;;;;0.50;0.50;;;18.00;99.90;;;;;;5056871;28;20191;-70
2022/07/04 04:38:05;;;;;;;0.30;0.30;;;18.00;99.90;;;;;;5056985;28;20185;-70
2022/07/04 04:40:30;;;;;;;0.40;0.40;;;18.10;99.90;;;;;;5056959;28;20163;-70
2022/07/04 04:42:56;;;;;;;0.30;0.30;;;18.10;99.90;;;;;;5057000;28;20177;-70
2022/07/04 04:45:22;;;;;;;0.30;0.30;;;18.00;99.90;;;;;;5056801;28;20200;-71
2022/07/04 04:47:48;;;;;;;0.40;0.40;;;18.00;99.90;;;;;;5056685;28;20473;-70
2022/07/04 04:50:14;;;;;;;0.30;0.30;;;18.00;99.90;;;;;;5056575;28;20627;-70
2022/07/04 04:52:41;;;;;;;0.30;0.30;;;18.00;99.90;;;;;;5056843;28;20163;-71
2022/07/04 04:55:07;;;;;;;1.93;0.77;;;18.10;99.90;;;;;;5056645;28;20398;-70
2022/07/04 04:57:34;;;;;;;0.53;0.53;;;18.10;99.90;;;;;;5056564;28;20488;-71
2022/07/04 05:00:00;;;;;;;0.30;0.30;;;18.10;99.90;;;;;;5056516;28;20415;-70
2022/07/04 05:02:26;;;;;;;1.07;0.80;;;18.10;99.90;;;;;;5056653;28;20405;-71
2022/07/04 05:04:52;;;;;;;0.37;0.37;;;18.10;99.90;;;;;;5056361;28;20405;-71
2022/07/04 05:07:19;;;;;;;0.40;0.40;;;18.10;99.90;;;;;;5056461;28;20457;-70
2022/07/04 05:09:44;;;;;;;0.90;0.90;;;18.20;99.90;;;;;;5056291;28;20401;-70
2022/07/04 05:12:10;;;;;;;0.30;0.30;;;18.20;99.90;;;;;;5056388;28;20452;-70
2022/07/04 05:14:36;;;;;;;0.40;0.40;;;18.30;99.90;;;;;;5056197;28;20164;-70
2022/07/04 05:17:02;;;;;;;0.50;0.50;;;18.30;99.90;;;;;;5056043;28;20194;-70
2022/07/04 05:19:27;;;;;;;0.57;0.57;;;18.40;99.90;;;;;;5056022;28;20183;-71
2022/07/04 05:21:53;;;;;;;0.30;0.30;;;18.40;99.90;;;;;;5056151;28;20415;-70
2022/07/04 05:24:19;;;;;;;0.30;0.30;;;18.40;99.90;;;;;;5056053;28;20270;-71
2022/07/04 05:26:44;;;;;;;0.40;0.40;;;18.40;99.90;;;;;;5055945;28;20608;-71
2022/07/04 05:29:10;;;;;;;0.47;0.47;;;18.40;99.90;;;;;;5055919;28;20171;-70
2022/07/04 05:31:36;;;;;;;0.30;0.30;;;18.50;99.90;;;;;;5056152;28;20171;-70
2022/07/04 05:34:01;;;;;;;0.30;0.30;;;18.40;99.90;;;;;;5056291;28;20188;-70
2022/07/04 05:36:28;;;;;;;0.30;0.30;;;18.40;99.90;;;;;;5055774;28;20627;-70
2022/07/04 05:38:54;;;;;;;0.30;0.30;;;18.50;99.90;;;;;;5055615;28;20208;-71
2022/07/04 05:41:19;;;;;;;0.53;0.53;;;18.50;99.90;;;;;;5055862;28;20793;-70
2022/07/04 05:43:45;;;;;;;0.47;0.47;;;18.50;99.90;;;;;;5055971;28;20171;-70
2022/07/04 05:46:11;;;;;;;0.30;0.30;;;18.40;99.90;;;;;;5055732;28;20202;-69
2022/07/04 05:48:36;;;;;;;0.47;0.47;;;18.40;99.90;;;;;;5055684;28;20220;-70
2022/07/04 05:51:03;;;;;;;0.40;0.40;;;18.40;99.90;;;;;;5055751;28;20245;-70
2022/07/04 05:53:29;;;;;;;0.50;0.50;;;18.30;99.90;;;;;;5055626;28;20158;-71
2022/07/04 05:55:55;;;;;;;0.50;0.50;;;18.40;99.90;;;;;;5055294;28;20429;-71
2022/07/04 05:58:21;;;;;;;0.50;0.50;;;18.40;99.90;;;;;;5055450;28;20640;-70
2022/07/04 06:00:46;;;;;;;0.47;0.47;;;18.40;99.90;;;;;;5055542;28;20411;-70
2022/07/04 06:03:12;;;;;;;0.30;0.30;;;18.40;99.90;;;;;;5055325;28;20266;-70
2022/07/04 06:05:38;;;;;;;0.30;0.30;;;18.40;99.90;;;;;;5055101;28;20273;-70
2022/07/04 06:08:04;;;;;;;1.60;1.50;;;18.50;99.90;;;;;;5055206;28;20254;-71
2022/07/04 06:10:30;;;;;;;0.30;0.30;;;18.60;99.90;;;;;;5055307;28;20207;-70
2022/07/04 06:12:56;;;;;;;0.40;0.40;;;18.60;99.90;;;;;;5055261;28;20397;-70
2022/07/04 06:15:22;;;;;;;0.50;0.50;;;18.60;99.90;;;;;;5055233;28;20432;-70
2022/07/04 06:17:47;;;;;;;0.30;0.30;;;18.70;99.90;;;;;;5054967;28;20186;-70
2022/07/04 06:20:13;;;;;;;0.37;0.37;;;18.90;99.90;;;;;;5054933;28;20170;-70
2022/07/04 06:22:45;;;;;;;0.30;0.30;;;19.10;99.90;;;;;;5055058;28;20192;-71
2022/07/04 06:25:13;;;;;;;0.40;0.40;;;19.30;99.90;;;;;;5054819;28;20665;-70
2022/07/04 06:27:39;;;;;;;0.30;0.30;;;19.50;99.90;;;;;;5054635;28;20933;-71
2022/07/04 06:30:06;;;;;;;0.77;0.77;;;19.60;99.90;;;;;;5054256;28;20441;-70
2022/07/04 06:32:41;;;;;;;0.40;0.40;;;19.60;99.90;;;;;;5054837;28;20505;-71
2022/07/04 06:37:51;;;;;;;0.30;0.30;;;19.80;99.90;;;;;;5054740;28;20391;-70
2022/07/04 06:40:17;;;;;;;0.30;0.30;;;20.00;99.90;;;;;;5054488;28;20412;-71
2022/07/04 06:42:43;;;;;;;0.40;0.40;;;20.30;99.90;;;;;;5054567;28;20572;-71
2022/07/04 06:45:09;;;;;;;0.40;0.40;;;20.40;99.90;;;;;;5054542;28;20180;-71
2022/07/04 06:47:35;;;;;;;0.30;0.30;;;20.80;99.90;;;;;;5054433;28;20204;-71
2022/07/04 06:50:01;;;;;;;0.47;0.47;;;21.20;99.90;;;;;;5054217;28;20413;-71
2022/07/04 06:52:27;;;;;;;0.30;0.30;;;21.50;99.90;;;;;;5054620;28;20255;-70
2022/07/04 06:54:53;;;;;;;0.30;0.30;;;21.70;99.90;;;;;;5054177;28;20175;-70
2022/07/04 06:57:19;;;;;;;0.40;0.40;;;21.80;99.90;;;;;;5054347;28;20410;-70
2022/07/04 06:59:45;;;;;;;0.30;0.30;;;21.50;99.90;;;;;;5054211;28;20411;-71
2022/07/04 07:02:10;;;;;;;0.30;0.30;;;21.40;99.90;;;;;;5054315;28;20229;-70
2022/07/04 07:04:37;;;;;;;0.53;0.53;;;21.80;99.90;;;;;;5054316;28;20175;-70
2022/07/04 07:07:03;;;;;;;0.30;0.30;;;21.90;99.90;;;;;;5054038;28;20230;-70
2022/07/04 07:09:29;;;;;;;0.30;0.30;;;22.30;99.90;;;;;;5053901;28;20874;-71
2022/07/04 07:11:54;;;;;;;0.40;0.40;;;22.60;99.40;;;;;;5054001;28;20170;-71
2022/07/04 07:14:20;;;;;;;0.30;0.30;;;23.00;99.00;;;;;;5054297;28;20240;-70
2022/07/04 07:16:45;;;;;;;0.30;0.30;;;23.20;99.70;;;;;;5053793;28;20205;-70
2022/07/04 07:19:11;;;;;;;0.40;0.40;;;23.10;99.50;;;;;;5053797;28;20185;-71
2022/07/04 07:21:36;;;;;;;0.60;0.60;;;23.50;98.30;;;;;;5053986;28;20189;-71
2022/07/04 07:24:03;;;;;;;0.30;0.30;;;24.10;98.20;;;;;;5053726;28;20198;-71
2022/07/04 07:26:29;;;;;;;0.40;0.40;;;24.70;97.90;;;;;;5053716;28;20213;-71
2022/07/04 07:28:55;;;;;;;0.30;0.30;;;25.00;96.30;;;;;;5053793;28;20380;-71
2022/07/04 07:31:21;;;;;;;0.40;0.40;;;25.30;95.30;;;;;;5053824;28;20178;-71
2022/07/04 07:33:46;;;;;;;1.33;1.23;;;25.90;94.90;;;;;;5053891;28;20192;-72
2022/07/04 07:36:12;;;;;;;0.30;0.30;;;25.90;93.90;;;;;;5053776;28;20617;-71
2022/07/04 07:38:38;;;;;;;0.30;0.30;;;25.50;93.60;;;;;;5053447;28;20587;-71
2022/07/04 07:41:07;;;;;;;0.30;0.30;;;25.60;94.30;;;;;;5052764;28;20178;-70
2022/07/04 07:43:33;;;;;;;0.33;0.33;;;26.20;94.70;;;;;;5053432;28;20236;-70
2022/07/04 07:45:59;;;;;;;0.50;0.50;;;27.20;93.90;;;;;;5053621;28;20456;-72
2022/07/04 07:48:25;;;;;;;0.70;0.70;;;27.20;91.00;;;;;;5053431;28;20170;-71
2022/07/04 07:50:50;;;;;;;0.53;0.53;;;26.40;91.20;;;;;;5053661;28;20619;-70
2022/07/04 07:53:16;;;;;;;0.50;0.47;;;26.30;91.60;;;;;;5053626;28;20182;-70
2022/07/04 07:55:41;;;;;;;0.30;0.30;;;26.80;91.80;;;;;;5053370;28;20194;-71
2022/07/04 07:58:07;;;;;;;0.30;0.30;;;27.80;91.50;;;;;;5053422;28;20184;-71
2022/07/04 08:00:33;;;;;;;0.60;0.60;;;29.40;90.10;;;;;;5053470;28;20239;-71
2022/07/04 08:05:43;;;;;;;0.57;0.57;;;31.70;79.50;;;;;;5053333;28;20197;-71
2022/07/04 08:08:09;;;;;;;0.50;0.50;;;32.40;73.80;;;;;;5053103;28;20779;-71
2022/07/04 08:10:37;;;;;;;0.30;0.30;;;32.70;70.00;;;;;;5053514;28;20166;-71
2022/07/04 08:13:03;;;;;;;0.30;0.30;;;32.50;71.00;;;;;;5053451;28;20405;-71
2022/07/04 08:15:29;;;;;;;0.40;0.40;;;33.20;69.60;;;;;;5053305;28;20896;-70
2022/07/04 08:17:55;;;;;;;0.40;0.40;;;32.70;59.90;;;;;;5053193;28;20503;-71
2022/07/04 08:20:20;;;;;;;0.40;0.40;;;32.50;59.80;;;;;;5053370;28;20186;-72
2022/07/04 08:22:46;;;;;;;0.30;0.30;;;33.20;64.20;;;;;;5053292;28;20190;-71
2022/07/04 08:25:14;;;;;;;0.30;0.30;;;33.90;61.50;;;;;;5053057;28;20202;-71
2022/07/04 08:27:39;;;;;;;0.30;0.30;;;34.80;57.70;;;;;;5053323;28;20544;-72
2022/07/04 08:30:05;;;;;;;0.40;0.40;;;35.90;57.20;;;;;;5053568;28;20408;-71
2022/07/04 08:32:31;;;;;;;0.30;0.30;;;36.80;55.40;;;;;;5053248;28;20220;-73
2022/07/04 08:34:57;;;;;;;0.30;0.30;;;37.30;51.50;;;;;;5053149;28;20809;-71
2022/07/04 08:37:23;;;;;;;0.40;0.40;;;35.70;50.90;;;;;;5051779;28;20586;-69
2022/07/04 08:39:49;;;;;;;0.30;0.30;;;36.40;50.70;;;;;;5053050;28;20224;-69
2022/07/04 08:42:17;;;;;;;0.30;0.30;;;36.00;53.30;;;;;;5053353;28;20771;-70
2022/07/04 08:44:47;;;;;;;0.30;0.30;;;36.40;55.40;;;;;;5053112;28;20540;-69
2022/07/04 08:47:19;;;;;;;0.40;0.40;;;36.40;50.50;;;;;;5052764;28;20468;-69
2022/07/04 08:50:06;;;;;;;0.40;0.30;;;36.50;53.40;;;;;;5052814;28;20392;-69
2022/07/04 08:52:40;;;;;;;0.30;0.30;;;35.10;51.10;;;;;;5055394;28;20451;-69
2022/07/04 09:00:40;;;;;;;0.30;0.30;;;35.80;54.70;;;;;;5056783;28;20431;-70
2022/07/04 09:03:07;;;;;;;0.30;0.30;;;36.20;49.10;;;;;;5056845;28;20413;-69
2022/07/04 09:05:33;;;;;;;0.53;0.53;;;36.20;46.50;;;;;;5056544;28;20432;-69
2022/07/04 09:08:00;;;;;;;0.60;0.57;;;36.10;51.80;;;;;;5056203;28;20425;-68
2022/07/04 09:10:25;;;;;;;0.30;0.30;;;35.80;50.70;;;;;;5056754;28;20416;-68
2022/07/04 09:12:52;;;;;;;0.30;0.30;;;36.20;48.60;;;;;;5056729;28;20508;-69
2022/07/04 09:15:18;;;;;;;0.40;0.40;;;35.90;49.10;;;;;;5056316;28;20228;-68
2022/07/04 09:17:44;;;;;;;0.50;0.50;;;34.80;49.30;;;;;;5056332;28;20456;-69
2022/07/04 09:20:15;;;;;;;0.70;0.60;;;34.40;53.70;;;;;;5056148;28;20413;-69
2022/07/04 09:22:42;;;;;;;0.40;0.40;;;35.10;53.80;;;;;;5056118;28;20527;-69
2022/07/04 09:25:08;;;;;;;0.30;0.30;;;35.40;52.00;;;;;;5055969;28;20409;-69
2022/07/04 09:27:39;;;;;;;0.33;0.33;;;35.80;50.10;;;;;;5055973;28;20456;-70
2022/07/04 09:30:06;;;;;;;0.40;0.40;;;35.80;48.80;;;;;;5055796;28;20769;-69
2022/07/04 09:32:43;;;;;;;0.50;0.40;;;35.70;50.80;;;;;;5056068;28;20980;-70
2022/07/04 09:35:17;;;;;;;0.40;0.30;;;36.40;51.40;;;;;;5055826;28;20401;-69
2022/07/04 09:37:46;;;;;;;0.30;0.30;;;36.70;49.50;;;;;;5056095;28;20405;-68
2022/07/04 09:40:27;;;;;;;0.50;0.50;;;37.10;47.40;;;;;;5055653;28;20420;-70
2022/07/04 09:42:54;;;;;;;0.30;0.30;;;36.60;45.90;;;;;;5055830;28;20401;-68
2022/07/04 09:45:23;;;;;;;0.40;0.30;;;35.60;47.50;;;;;;5055751;28;20482;-69
2022/07/04 09:47:49;;;;;;;0.30;0.30;;;35.00;49.70;;;;;;5055539;28;20456;-70
2022/07/04 09:50:16;;;;;;;0.30;0.30;;;34.30;50.40;;;;;;5055452;28;20408;-69
2022/07/04 09:52:53;;;;;;;0.30;0.30;;;34.40;55.00;;;;;;5055804;28;20432;-69
2022/07/04 09:55:27;;;;;;;0.50;0.40;;;35.00;50.50;;;;;;5055717;28;20432;-69
2022/07/04 09:57:55;;;;;;;0.30;0.30;;;35.40;49.10;;;;;;5055527;28;20392;-69
2022/07/04 10:00:33;;;;;;;0.47;0.40;;;35.10;48.40;;;;;;5055394;28;20417;-69
2022/07/04 10:03:20;;;;;;;0.30;0.30;;;33.00;49.90;;;;;;5054754;28;20405;-69
2022/07/04 10:05:48;;;;;;;0.60;0.60;;;32.10;54.50;;;;;;5055365;28;20432;-69
2022/07/04 10:08:13;;;;;;;0.63;0.63;;;32.30;54.40;;;;;;5055107;28;20409;-69
2022/07/04 10:10:40;;;;;;;0.50;0.40;;;33.00;53.10;;;;;;5055374;28;20409;-69
2022/07/04 10:13:08;;;;;;;1.00;0.50;;;33.30;55.20;;;;;;5055185;28;20511;-68
2022/07/04 10:15:37;;;;;;;0.50;0.50;;;33.30;52.80;;;;;;5055013;28;20425;-69
2022/07/04 10:18:03;;;;;;;0.50;0.40;;;33.40;54.60;;;;;;5054940;28;20447;-69
2022/07/04 10:20:29;;;;;;;0.30;0.30;;;33.50;55.00;;;;;;5054992;28;20404;-69
2022/07/04 10:22:56;;;;;;;0.30;0.30;;;33.20;52.20;;;;;;5054977;28;20435;-69
2022/07/04 10:25:21;;;;;;;0.30;0.30;;;33.00;50.80;;;;;;5055142;28;20205;-70
2022/07/04 10:27:50;;;;;;;0.30;0.30;;;33.00;55.20;;;;;;5055211;28;20936;-69
2022/07/04 10:30:21;;;;;;;0.30;0.30;;;33.20;55.20;;;;;;5054754;28;20685;-69
2022/07/04 10:32:48;;;;;;;0.30;0.30;;;33.50;53.30;;;;;;5053690;28;20417;-69
2022/07/04 10:35:15;;;;;;;0.30;0.30;;;33.30;53.50;;;;;;5054808;28;20447;-68
2022/07/04 10:38:02;;;;;;;0.30;0.30;;;33.20;51.00;;;;;;5054641;28;20443;-69
2022/07/04 10:40:47;;;;;;;0.77;0.77;;;32.30;51.30;;;;;;5054719;28;20458;-68
2022/07/04 10:43:33;;;;;;;0.40;0.40;;;32.40;51.10;;;;;;5054495;28;20780;-68
2022/07/04 10:46:06;;;;;;;0.30;0.30;;;32.30;53.20;;;;;;5054508;28;20478;-69
2022/07/04 10:48:32;;;;;;;0.40;0.40;;;32.10;55.50;;;;;;5054339;28;20397;-69
2022/07/04 10:51:01;;;;;;;0.60;0.60;;;31.80;55.20;;;;;;5054844;28;20463;-69
2022/07/04 10:53:32;;;;;;;0.57;0.57;;;31.60;56.90;;;;;;5054487;28;20411;-69
2022/07/04 10:56:18;;;;;;;0.97;0.50;;;30.70;56.00;;;;;;5054405;28;20444;-68
2022/07/04 10:58:44;;;;;;;0.40;0.40;;;29.40;58.50;;;;;;5053282;28;20780;-68
2022/07/04 11:01:13;;;;;;;0.40;0.40;;;28.50;63.00;;;;;;5054688;28;20408;-68
2022/07/04 11:03:46;;;;;;;0.40;0.40;;;27.60;63.90;;;;;;5054447;28;20260;-68
2022/07/04 11:06:33;;;;;;;0.80;0.63;;;27.10;70.10;;;;;;5054124;28;20460;-68
2022/07/04 11:09:15;;;;;;;0.30;0.30;;;26.60;70.20;;;;;;5053888;28;20405;-68
2022/07/04 11:12:07;;;;;;;0.30;0.30;;;26.20;68.10;;;;;;5054076;28;20401;-68
2022/07/04 11:14:44;;;;;;;0.80;0.70;;;26.20;71.50;;;;;;5053483;28;20507;-69
2022/07/04 11:17:41;;;;;;;0.40;0.40;;;26.20;72.40;;;;;;5052227;28;20486;-69
2022/07/04 11:20:08;;;;;;;0.50;0.50;;;26.30;73.30;;;;;;5051896;28;20507;-69
2022/07/04 11:22:34;;;;;;;0.40;0.40;;;26.70;72.60;;;;;;5053624;28;20963;-69
2022/07/04 11:25:00;;;;;;;0.50;0.50;;;26.90;71.30;;;;;;5054031;28;20432;-68
2022/07/04 11:27:25;;;;;;;0.50;0.50;;;27.00;71.60;;;;;;5054402;28;20452;-71
2022/07/04 11:29:52;;;;;;;0.40;0.40;;;27.40;73.60;;;;;;5053595;28;20174;-71
2022/07/04 11:32:19;;;;;;;0.60;0.60;;;27.60;68.10;;;;;;5053719;28;20176;-72
2022/07/04 11:34:46;;;;;;;0.40;0.40;;;27.70;69.20;;;;;;5053751;28;20405;-71
2022/07/04 11:37:12;;;;;;;0.40;0.40;;;27.50;69.70;;;;;;5053612;28;20438;-71
2022/07/04 11:39:38;;;;;;;0.60;0.50;;;27.40;72.70;;;;;;5053555;28;20412;-70
2022/07/04 11:45:05;;;;;;;0.30;0.30;;;26.70;71.20;;;;;;5053912;28;20205;-71
2022/07/04 11:47:42;;;;;;;0.30;0.30;;;26.80;76.20;;;;;;5053556;28;20539;-71
2022/07/04 11:50:19;;;;;;;0.30;0.30;;;27.00;71.90;;;;;;5053539;28;20415;-71
2022/07/04 11:52:53;;;;;;;0.30;0.30;;;27.30;71.30;;;;;;5053719;28;20765;-71
2022/07/04 11:55:21;;;;;;;0.40;0.40;;;27.50;71.50;;;;;;5053571;28;20457;-71
2022/07/04 11:57:52;;;;;;;0.40;0.40;;;27.40;72.70;;;;;;5053454;28;20404;-71
2022/07/04 12:00:21;;;;;;;0.30;0.30;;;27.30;68.00;;;;;;5053366;28;20492;-71
2022/07/04 12:02:48;;;;;;;0.40;0.40;;;27.20;69.70;;;;;;5053556;28;20764;-70
2022/07/04 12:05:15;;;;;;;0.40;0.40;;;26.90;69.70;;;;;;5053467;28;20424;-71
2022/07/04 12:07:43;;;;;;;0.40;0.40;;;26.80;72.80;;;;;;5053295;28;20456;-71
2022/07/04 12:10:18;;;;;;;0.47;0.47;;;26.50;70.20;;;;;;5053058;28;20451;-70
2022/07/04 12:13:02;;;;;;;0.40;0.40;;;26.30;71.60;;;;;;5053433;28;20412;-71
2022/07/04 12:15:43;;;;;;;0.30;0.30;;;26.40;74.30;;;;;;5053369;28;20838;-71
2022/07/04 12:18:31;;;;;;;0.50;0.47;;;26.40;72.60;;;;;;5053069;28;20396;-71
2022/07/04 12:21:12;;;;;;;0.30;0.30;;;26.10;70.20;;;;;;5053921;28;20491;-71
2022/07/04 12:23:39;;;;;;;0.30;0.30;;;26.20;76.30;;;;;;5053130;28;20414;-71
2022/07/04 12:26:06;;;;;;;0.43;0.43;;;26.40;73.40;;;;;;5053311;28;20434;-71
2022/07/04 12:28:36;;;;;;;0.43;0.43;;;26.40;75.50;;;;;;5057241;28;20405;-71
2022/07/04 12:31:02;;;;;;;0.70;0.70;;;26.70;76.60;;;;;;5057342;28;20799;-71
2022/07/04 12:33:29;;;;;;;0.40;0.40;;;26.80;75.00;;;;;;5057281;28;20401;-72
2022/07/04 12:36:02;;;;;;;0.40;0.40;;;27.00;74.60;;;;;;5057166;28;20456;-71
2022/07/04 12:38:27;;;;;;;0.40;0.40;;;26.70;71.00;;;;;;5056980;28;20407;-70
2022/07/04 12:41:01;;;;;;;0.30;0.30;;;26.40;72.30;;;;;;5057038;28;20861;-71
2022/07/04 12:43:42;;;;;;;0.30;0.30;;;26.30;75.20;;;;;;5057047;28;20721;-70
2022/07/04 12:46:28;;;;;;;0.30;0.30;;;26.30;77.90;;;;;;5056654;28;20449;-71
2022/07/04 12:48:55;;;;;;;0.30;0.30;;;26.40;80.20;;;;;;5056593;28;20403;-72
2022/07/04 12:51:23;;;;;;;0.30;0.30;;;26.50;75.50;;;;;;5056898;28;20397;-71
2022/07/04 12:53:51;;;;;;;0.80;0.80;;;26.60;77.40;;;;;;5056748;28;20397;-70
2022/07/04 12:56:31;;;;;;;0.33;0.33;;;26.50;72.70;;;;;;5056593;28;20440;-71
2022/07/04 12:59:01;;;;;;;0.60;0.60;;;26.80;72.60;;;;;;5056496;28;20431;-71
2022/07/04 13:01:27;;;;;;;0.30;0.30;;;27.10;74.40;;;;;;5056747;28;20465;-71
2022/07/04 13:03:52;;;;;;;0.37;0.37;;;27.10;74.10;;;;;;5056538;28;20792;-70
2022/07/04 13:06:19;;;;;;;0.30;0.30;;;26.90;68.80;;;;;;5056483;28;20202;-71
2022/07/04 13:08:46;;;;;;;0.40;0.40;;;27.00;66.80;;;;;;5056370;28;20173;-71
2022/07/04 13:13:55;;;;;;;0.30;0.30;;;26.70;65.10;;;;;;5056523;28;20378;-71
2022/07/04 13:16:21;;;;;;;0.40;0.40;;;26.80;68.00;;;;;;5056205;28;20432;-71
2022/07/04 13:18:47;;;;;;;0.40;0.40;;;26.90;71.80;;;;;;5056139;28;20185;-71